createdAt,value
2017-12-05T00:01:16.103Z,35.27
2017-12-05T00:03:43.598Z,38.53
2017-12-05T00:06:11.103Z,36.53
2017-12-05T00:08:38.622Z,34.70
2017-12-05T00:11:06.113Z,36.03
2017-12-05T00:13:33.622Z,38.80
2017-12-05T00:16:01.118Z,34.57
2017-12-05T00:18:29.403Z,40.50
2017-12-05T00:20:56.904Z,39.93
2017-12-05T00:23:24.419Z,36.93
2017-12-05T00:25:51.915Z,30.53
2017-12-05T00:28:19.431Z,34.07
2017-12-05T00:30:46.926Z,35.50
2017-12-05T00:33:14.439Z,32.47
2017-12-05T00:35:42.707Z,38.70
2017-12-05T00:38:11.015Z,38.50
2017-12-05T00:40:38.510Z,39.93
2017-12-05T00:43:06.002Z,36.10
2017-12-05T00:45:34.282Z,30.67
2017-12-05T00:48:02.549Z,35.00
2017-12-05T00:50:30.830Z,33.50
2017-12-05T00:52:59.099Z,38.10
2017-12-05T00:55:27.383Z,28.57
2017-12-05T00:57:55.643Z,40.00
2017-12-05T01:00:23.163Z,34.37
2017-12-05T01:02:50.654Z,37.13
2017-12-05T01:05:18.172Z,32.10
2017-12-05T01:07:45.671Z,36.03
2017-12-05T01:10:13.192Z,36.37
2017-12-05T01:12:40.682Z,31.07
2017-12-05T01:15:08.178Z,35.20
2017-12-05T01:17:35.698Z,36.70
2017-12-05T01:20:03.200Z,35.47
2017-12-05T01:22:30.714Z,38.33
2017-12-05T01:24:58.210Z,31.87
2017-12-05T01:27:25.731Z,31.77
2017-12-05T01:29:53.226Z,32.23
2017-12-05T01:32:20.738Z,27.80
2017-12-05T01:34:48.232Z,29.43
2017-12-05T01:37:16.537Z,34.03
2017-12-05T01:39:44.036Z,35.23
2017-12-05T01:42:11.534Z,35.07
2017-12-05T01:44:39.056Z,39.17
2017-12-05T01:47:06.552Z,39.23
2017-12-05T01:49:34.071Z,40.80
2017-12-05T01:52:01.571Z,32.87
2017-12-05T01:54:29.090Z,34.27
2017-12-05T01:56:56.594Z,31.43
2017-12-05T01:59:24.110Z,32.37
2017-12-05T02:01:51.608Z,35.93
2017-12-05T02:04:19.114Z,42.17
2017-12-05T02:06:46.615Z,35.57
2017-12-05T02:09:14.140Z,35.87
2017-12-05T02:11:41.660Z,37.27
2017-12-05T02:14:09.158Z,30.70
2017-12-05T02:16:36.674Z,37.37
2017-12-05T02:19:04.177Z,30.77
2017-12-05T02:21:32.458Z,36.53
2017-12-05T02:24:00.727Z,38.63
2017-12-05T02:26:29.018Z,37.27
2017-12-05T02:28:57.281Z,39.80
2017-12-05T02:31:25.548Z,30.43
2017-12-05T02:33:53.068Z,31.90
2017-12-05T02:36:20.564Z,33.67
2017-12-05T02:38:48.087Z,41.60
2017-12-05T02:41:15.582Z,34.67
2017-12-05T02:43:43.101Z,33.87
2017-12-05T02:46:10.598Z,35.63
2017-12-05T02:48:38.114Z,33.17
2017-12-05T02:51:05.606Z,42.10
2017-12-05T02:53:33.119Z,31.90
2017-12-05T02:56:00.615Z,35.10
2017-12-05T02:58:28.146Z,35.63
2017-12-05T03:00:55.640Z,40.20
2017-12-05T03:03:23.135Z,29.80
2017-12-05T03:05:50.658Z,31.30
2017-12-05T03:08:18.156Z,34.03
2017-12-05T03:10:45.675Z,29.60
2017-12-05T03:13:13.178Z,36.93
2017-12-05T03:15:40.695Z,31.00
2017-12-05T03:18:08.196Z,33.40
2017-12-05T03:20:35.715Z,29.87
2017-12-05T03:23:03.977Z,29.87
2017-12-05T03:25:31.494Z,22.03
2017-12-05T03:27:58.994Z,26.10
2017-12-05T03:30:26.851Z,26.20
2017-12-05T03:32:54.354Z,23.73
2017-12-05T03:35:21.870Z,35.53
2017-12-05T03:37:49.367Z,40.77
2017-12-05T03:40:16.876Z,33.20
2017-12-05T03:42:44.399Z,30.43
2017-12-05T03:45:11.895Z,33.90
2017-12-05T03:47:39.414Z,30.93
2017-12-05T03:50:06.909Z,33.43
2017-12-05T03:52:34.419Z,21.70
2017-12-05T03:55:01.919Z,26.93
2017-12-05T03:57:29.434Z,26.23
2017-12-05T03:59:56.930Z,26.17
2017-12-05T04:02:24.454Z,25.60
2017-12-05T04:04:51.954Z,35.70
2017-12-05T04:07:19.482Z,26.10
2017-12-05T04:09:46.976Z,26.67
2017-12-05T04:12:14.474Z,29.40
2017-12-05T04:14:41.995Z,26.67
2017-12-05T04:17:09.513Z,25.70
2017-12-05T04:19:37.031Z,22.37
2017-12-05T04:22:05.291Z,27.23
2017-12-05T04:24:32.842Z,23.80
2017-12-05T04:27:00.335Z,28.13
2017-12-05T04:29:28.615Z,23.47
2017-12-05T04:31:56.870Z,22.37
2017-12-05T04:34:25.150Z,19.27
2017-12-05T04:36:53.410Z,23.97
2017-12-05T04:39:20.935Z,23.90
2017-12-05T04:41:48.430Z,21.70
2017-12-05T04:44:15.970Z,19.27
2017-12-05T04:46:43.474Z,26.63
2017-12-05T04:49:10.978Z,24.87
2017-12-05T04:51:38.495Z,21.13
2017-12-05T04:54:05.995Z,29.40
2017-12-05T04:56:33.515Z,27.50
2017-12-05T04:59:01.019Z,21.40
2017-12-05T05:01:28.538Z,26.23
2017-12-05T05:03:56.043Z,24.63
2017-12-05T05:06:23.559Z,23.60
2017-12-05T05:08:51.055Z,22.97
2017-12-05T05:11:18.568Z,22.90
2017-12-05T05:13:46.066Z,29.40
2017-12-05T05:16:13.567Z,19.47
2017-12-05T05:18:41.847Z,23.10
2017-12-05T05:21:09.347Z,23.37
2017-12-05T05:23:36.858Z,23.20
2017-12-05T05:26:05.118Z,27.93
2017-12-05T05:28:33.395Z,24.00
2017-12-05T05:31:01.655Z,19.77
2017-12-05T05:33:29.168Z,22.90
2017-12-05T05:35:56.675Z,22.20
2017-12-05T05:38:24.187Z,25.10
2017-12-05T05:40:51.682Z,29.23
2017-12-05T05:43:19.191Z,22.57
2017-12-05T05:45:46.691Z,23.17
2017-12-05T05:48:14.206Z,23.40
2017-12-05T05:50:41.707Z,28.80
2017-12-05T05:53:09.203Z,19.53
2017-12-05T05:55:36.750Z,21.30
2017-12-05T05:58:05.015Z,22.87
2017-12-05T06:00:32.526Z,21.77
2017-12-05T06:03:00.020Z,29.77
2017-12-05T06:05:27.531Z,25.77
2017-12-05T06:07:55.026Z,22.13
2017-12-05T06:12:56.415Z,20.87
2017-12-05T06:15:24.719Z,18.33
2017-12-05T06:17:52.231Z,28.50
2017-12-05T06:20:19.725Z,19.37
2017-12-05T06:22:48.003Z,20.17
2017-12-05T06:25:16.258Z,17.83
2017-12-05T06:27:43.772Z,23.17
2017-12-05T06:30:11.272Z,21.80
2017-12-05T06:32:38.785Z,18.60
2017-12-05T06:35:06.274Z,20.53
2017-12-05T06:37:33.798Z,24.53
2017-12-05T06:40:01.291Z,18.97
2017-12-05T06:42:28.783Z,18.83
2017-12-05T06:44:57.066Z,24.47
2017-12-05T06:47:24.563Z,21.30
2017-12-05T06:49:52.071Z,18.70
2017-12-05T06:52:20.326Z,18.30
2017-12-05T06:54:47.838Z,17.40
2017-12-05T06:57:15.339Z,19.37
2017-12-05T06:59:42.855Z,18.63
2017-12-05T07:02:10.359Z,24.20
2017-12-05T07:04:38.659Z,23.63
2017-12-05T07:07:06.922Z,24.10
2017-12-05T07:09:35.184Z,26.63
2017-12-05T07:12:02.704Z,22.60
2017-12-05T07:14:30.202Z,21.20
2017-12-05T07:16:57.718Z,19.17
2017-12-05T07:19:25.210Z,23.13
2017-12-05T07:21:52.726Z,25.23
2017-12-05T07:24:20.227Z,24.00
2017-12-05T07:26:47.769Z,28.37
2017-12-05T07:29:15.276Z,25.07
2017-12-05T07:31:42.821Z,21.97
2017-12-05T07:34:11.091Z,26.53
2017-12-05T07:36:39.354Z,26.23
2017-12-05T07:39:06.870Z,21.97
2017-12-05T07:41:34.391Z,33.90
2017-12-05T07:46:36.657Z,46.20
2017-12-05T07:49:04.186Z,31.13
2017-12-05T07:51:31.693Z,34.70
2017-12-05T07:53:59.962Z,34.33
2017-12-05T07:56:28.247Z,32.77
2017-12-05T07:58:56.524Z,38.87
2017-12-05T08:01:24.815Z,31.40
2017-12-05T08:03:52.319Z,25.93
2017-12-05T08:06:19.843Z,33.63
2017-12-05T08:08:47.366Z,17.47
2017-12-05T08:11:15.659Z,29.40
2017-12-05T08:13:43.188Z,25.60
2017-12-05T08:16:10.723Z,22.10
2017-12-05T08:18:38.232Z,27.13
2017-12-05T08:21:05.762Z,18.40
2017-12-05T08:23:34.051Z,21.13
2017-12-05T08:26:02.364Z,20.53
2017-12-05T08:28:29.883Z,20.73
2017-12-05T08:30:58.168Z,18.23
2017-12-05T08:33:26.471Z,29.40
2017-12-05T08:35:53.975Z,18.07
2017-12-05T08:38:21.499Z,20.70
2017-12-05T08:40:49.019Z,15.93
2017-12-05T08:43:17.294Z,17.63
2017-12-05T08:45:45.558Z,20.30
2017-12-05T08:48:13.094Z,23.90
2017-12-05T08:50:40.593Z,18.43
2017-12-05T08:53:08.095Z,23.10
2017-12-05T08:55:35.611Z,18.87
2017-12-05T08:58:03.882Z,18.17
2017-12-05T09:00:32.166Z,14.63
2017-12-05T09:02:59.665Z,27.90
2017-12-05T09:05:27.183Z,13.50
2017-12-05T09:07:54.683Z,18.17
2017-12-05T09:10:22.212Z,17.07
2017-12-05T09:12:49.711Z,15.17
2017-12-05T09:15:17.205Z,13.93
2017-12-05T09:17:45.486Z,17.83
2017-12-05T09:20:13.755Z,17.23
2017-12-05T09:22:42.039Z,22.63
2017-12-05T09:25:10.299Z,16.73
2017-12-05T09:27:38.598Z,19.90
2017-12-05T09:32:39.973Z,11.77
2017-12-05T09:35:07.474Z,25.83
2017-12-05T09:37:34.974Z,28.10
2017-12-05T09:40:02.495Z,27.37
2017-12-05T09:42:29.991Z,17.93
2017-12-05T09:44:57.506Z,25.23
2017-12-05T09:47:25.003Z,19.43
2017-12-05T09:49:53.298Z,14.03
2017-12-05T09:52:20.790Z,14.57
2017-12-05T09:54:48.291Z,15.63
2017-12-05T09:57:16.575Z,14.00
2017-12-05T09:59:44.074Z,18.40
2017-12-05T10:02:11.591Z,17.90
2017-12-05T10:04:39.097Z,16.03
2017-12-05T10:07:06.610Z,16.70
2017-12-05T10:09:34.107Z,13.30
2017-12-05T10:12:03.066Z,14.10
2017-12-05T10:14:30.608Z,15.10
2017-12-05T10:16:59.110Z,18.53
2017-12-05T10:19:27.611Z,14.33
2017-12-05T10:21:55.115Z,17.33
2017-12-05T10:24:23.398Z,14.30
2017-12-05T10:26:51.658Z,13.00
2017-12-05T10:29:19.175Z,17.23
2017-12-05T10:31:46.681Z,16.80
2017-12-05T10:34:14.966Z,23.00
2017-12-05T10:36:43.279Z,22.77
2017-12-05T10:39:10.814Z,15.53
2017-12-05T10:41:38.343Z,20.37
2017-12-05T10:44:05.861Z,26.70
2017-12-05T10:46:33.375Z,16.97
2017-12-05T10:49:01.672Z,18.00
2017-12-05T10:51:29.192Z,16.43
2017-12-05T10:53:56.691Z,17.03
2017-12-05T10:56:24.212Z,19.70
2017-12-05T10:58:52.572Z,14.60
2017-12-05T11:01:20.183Z,13.90
2017-12-05T11:03:47.687Z,14.53
2017-12-05T11:06:15.271Z,15.37
2017-12-05T11:08:43.535Z,11.43
2017-12-05T11:11:11.066Z,15.60
2017-12-05T11:13:38.567Z,10.47
2017-12-05T11:16:06.859Z,18.80
2017-12-05T11:18:35.299Z,13.63
2017-12-05T11:21:02.855Z,15.80
2017-12-05T11:23:30.354Z,14.67
2017-12-05T11:25:58.630Z,15.70
2017-12-05T11:28:26.134Z,18.27
2017-12-05T11:30:53.646Z,14.20
2017-12-05T11:33:21.162Z,9.23
2017-12-05T11:35:49.494Z,16.77
2017-12-05T11:38:16.991Z,13.23
2017-12-05T11:40:44.555Z,12.40
2017-12-05T11:43:12.055Z,16.07
2017-12-05T11:45:40.338Z,19.13
2017-12-05T11:48:07.832Z,12.20
2017-12-05T11:50:35.335Z,12.50
2017-12-05T11:53:03.614Z,15.80
2017-12-05T11:55:31.895Z,13.60
2017-12-05T11:58:00.179Z,15.63
2017-12-05T12:00:27.701Z,12.43
2017-12-05T12:02:55.282Z,14.50
2017-12-05T12:05:23.634Z,14.30
2017-12-05T12:07:51.209Z,13.83
2017-12-05T12:10:19.491Z,11.83
2017-12-05T12:12:47.771Z,16.10
2017-12-05T12:15:16.041Z,13.17
2017-12-05T12:17:44.322Z,15.13
2017-12-05T12:20:12.583Z,13.67
2017-12-05T12:22:40.172Z,12.73
2017-12-05T12:25:07.671Z,14.50
2017-12-05T12:27:35.934Z,12.57
2017-12-05T12:30:03.457Z,16.27
2017-12-05T12:32:31.727Z,21.70
2017-12-05T12:35:00.004Z,17.83
2017-12-05T12:37:28.262Z,15.83
2017-12-05T12:39:55.799Z,13.43
2017-12-05T12:42:23.303Z,13.13
2017-12-05T12:44:51.573Z,17.03
2017-12-05T12:47:19.860Z,11.37
2017-12-05T12:49:47.354Z,12.93
2017-12-05T12:52:14.870Z,14.20
2017-12-05T12:54:43.138Z,11.20
2017-12-05T12:57:11.425Z,11.70
2017-12-05T12:59:39.690Z,16.63
2017-12-05T13:02:07.970Z,12.93
2017-12-05T13:04:36.239Z,13.00
2017-12-05T13:07:04.528Z,14.07
2017-12-05T13:09:32.027Z,15.67
2017-12-05T13:11:59.834Z,12.93
2017-12-05T13:14:27.378Z,12.13
2017-12-05T13:16:54.890Z,13.33
2017-12-05T13:19:22.399Z,13.07
2017-12-05T13:21:49.914Z,14.23
2017-12-05T13:24:17.414Z,11.93
2017-12-05T13:26:44.935Z,12.50
2017-12-05T13:29:12.432Z,12.83
2017-12-05T13:31:39.960Z,16.27
2017-12-05T13:34:07.461Z,15.90
2017-12-05T13:36:35.727Z,18.80
2017-12-05T13:39:03.244Z,13.30
2017-12-05T13:41:30.744Z,15.73
2017-12-05T13:43:59.031Z,13.73
2017-12-05T13:46:27.302Z,12.73
2017-12-05T13:48:55.608Z,14.23
2017-12-05T13:51:23.098Z,16.83
2017-12-05T13:53:50.595Z,10.23
2017-12-05T13:56:18.871Z,14.70
2017-12-05T13:58:47.131Z,14.47
2017-12-05T14:01:14.646Z,16.47
2017-12-05T14:03:42.143Z,16.30
2017-12-05T14:06:09.663Z,12.50
2017-12-05T14:08:37.167Z,17.10
2017-12-05T14:11:04.682Z,13.10
2017-12-05T14:13:32.175Z,14.43
2017-12-05T14:15:59.671Z,11.40
2017-12-05T14:18:27.195Z,11.47
2017-12-05T14:20:54.692Z,11.40
2017-12-05T14:23:22.207Z,11.03
2017-12-05T14:25:49.713Z,14.30
2017-12-05T14:28:17.223Z,9.80
2017-12-05T14:30:44.728Z,14.63
2017-12-05T14:33:12.243Z,12.33
2017-12-05T14:35:39.747Z,11.27
2017-12-05T14:38:07.263Z,9.93
2017-12-05T14:40:35.532Z,13.20
2017-12-05T14:43:03.047Z,11.10
2017-12-05T14:45:30.547Z,20.37
2017-12-05T14:47:58.063Z,12.10
2017-12-05T14:50:25.563Z,15.10
2017-12-05T14:52:53.075Z,13.37
2017-12-05T14:55:20.567Z,8.43
2017-12-05T14:57:48.074Z,10.80
2017-12-05T15:00:15.589Z,12.67
2017-12-05T15:02:43.119Z,9.00
2017-12-05T15:05:10.616Z,8.90
2017-12-05T15:07:38.110Z,13.70
2017-12-05T15:10:05.635Z,12.73
2017-12-05T15:12:33.132Z,13.30
2017-12-05T15:15:00.647Z,7.97
2017-12-05T15:17:28.143Z,16.53
2017-12-05T15:19:55.658Z,10.63
2017-12-05T15:22:23.154Z,14.13
2017-12-05T15:24:50.667Z,10.67
2017-12-05T15:27:18.162Z,9.23
2017-12-05T15:29:45.678Z,14.10
2017-12-05T15:32:13.179Z,11.70
2017-12-05T15:34:40.716Z,8.47
2017-12-05T15:37:08.214Z,10.33
2017-12-05T15:39:35.731Z,11.10
2017-12-05T15:42:04.007Z,10.23
2017-12-05T15:44:32.294Z,8.20
2017-12-05T15:47:00.559Z,14.77
2017-12-05T15:49:28.846Z,15.73
2017-12-05T15:51:57.115Z,13.03
2017-12-05T15:54:25.420Z,13.27
2017-12-05T15:56:52.923Z,15.73
2017-12-05T15:59:20.424Z,11.80
2017-12-05T16:01:47.942Z,11.77
2017-12-05T16:04:15.435Z,9.87
2017-12-05T16:06:43.719Z,12.23
2017-12-05T16:09:11.219Z,13.70
2017-12-05T16:11:38.736Z,19.07
2017-12-05T16:14:06.242Z,15.03
2017-12-05T16:16:33.783Z,12.13
2017-12-05T16:19:01.282Z,13.60
2017-12-05T16:21:28.821Z,17.30
2017-12-05T16:23:56.343Z,16.13
2017-12-05T16:26:23.843Z,15.17
2017-12-05T16:28:51.364Z,15.97
2017-12-05T16:31:18.863Z,14.50
2017-12-05T16:33:46.381Z,19.37
2017-12-05T16:36:13.883Z,15.13
2017-12-05T16:38:41.426Z,19.70
2017-12-05T16:41:08.927Z,20.00
2017-12-05T16:43:37.200Z,17.47
2017-12-05T16:46:05.482Z,17.83
2017-12-05T16:48:32.982Z,17.27
2017-12-05T16:51:00.498Z,14.90
2017-12-05T16:53:27.995Z,13.90
2017-12-05T16:55:55.510Z,14.70
2017-12-05T16:58:23.011Z,14.97
2017-12-05T17:00:50.541Z,13.57
2017-12-05T17:03:18.059Z,15.30
2017-12-05T17:05:45.585Z,18.83
2017-12-05T17:08:13.095Z,18.80
2017-12-05T17:10:41.391Z,20.43
2017-12-05T17:13:08.925Z,18.67
2017-12-05T17:15:37.237Z,19.77
2017-12-05T17:18:04.743Z,25.90
2017-12-05T17:20:32.267Z,18.00
2017-12-05T17:22:59.767Z,19.17
2017-12-05T17:25:28.056Z,22.43
2017-12-05T17:27:56.315Z,18.90
2017-12-05T17:30:23.850Z,23.37
2017-12-05T17:32:51.355Z,29.97
2017-12-05T17:35:18.875Z,24.50
2017-12-05T17:37:46.383Z,36.67
2017-12-05T17:40:13.902Z,314.90
2017-12-05T17:42:42.186Z,697.43
2017-12-05T17:45:10.478Z,195.00
2017-12-05T17:47:38.762Z,39.97
2017-12-05T17:50:06.271Z,20.33
2017-12-05T17:52:33.795Z,24.43
2017-12-05T17:55:01.307Z,26.27
2017-12-05T17:57:29.603Z,20.67
2017-12-05T17:59:57.876Z,22.07
2017-12-05T18:02:26.160Z,37.13
2017-12-05T18:04:53.672Z,37.47
2017-12-05T18:07:21.204Z,34.13
2017-12-05T18:09:48.716Z,27.20
2017-12-05T18:12:17.051Z,28.93
2017-12-05T18:14:44.641Z,27.53
2017-12-05T18:17:12.121Z,27.13
2017-12-05T18:19:39.655Z,24.70
2017-12-05T18:22:07.176Z,28.60
2017-12-05T18:24:34.723Z,24.10
2017-12-05T18:27:02.241Z,34.63
2017-12-05T18:29:30.532Z,38.20
2017-12-05T18:31:58.799Z,39.10
2017-12-05T18:34:27.087Z,33.70
2017-12-05T18:36:55.356Z,25.03
2017-12-05T18:39:23.661Z,23.83
2017-12-05T18:41:51.167Z,31.87
2017-12-05T18:44:18.674Z,30.07
2017-12-05T18:46:46.203Z,28.17
2017-12-05T18:49:14.485Z,23.63
2017-12-05T18:51:42.767Z,25.87
2017-12-05T18:54:11.035Z,27.80
2017-12-05T18:56:39.323Z,28.63
2017-12-05T18:59:06.827Z,40.63
2017-12-05T19:01:35.112Z,69.00
2017-12-05T19:04:02.627Z,61.27
2017-12-05T19:06:30.147Z,50.87
2017-12-05T19:08:57.646Z,43.70
2017-12-05T19:11:25.155Z,32.50
2017-12-05T19:13:52.655Z,37.53
2017-12-05T19:16:20.176Z,35.30
2017-12-05T19:18:47.679Z,29.03
2017-12-05T19:21:15.190Z,29.97
2017-12-05T19:23:42.699Z,24.67
2017-12-05T19:26:11.047Z,35.57
2017-12-05T19:28:39.306Z,29.07
2017-12-05T19:31:06.822Z,31.23
2017-12-05T19:33:34.323Z,26.00
2017-12-05T19:36:02.649Z,26.07
2017-12-05T19:38:30.155Z,26.13
2017-12-05T19:40:57.674Z,24.50
2017-12-05T19:43:25.183Z,25.83
2017-12-05T19:45:53.471Z,27.47
2017-12-05T19:48:21.734Z,28.03
2017-12-05T19:50:50.023Z,27.50
2017-12-05T19:53:18.293Z,30.13
2017-12-05T19:55:46.575Z,31.40
2017-12-05T19:58:14.117Z,38.37
2017-12-05T20:00:42.383Z,39.23
2017-12-05T20:03:10.687Z,34.97
2017-12-05T20:05:38.187Z,29.47
2017-12-05T20:08:05.712Z,31.60
2017-12-05T20:10:33.219Z,31.80
2017-12-05T20:13:00.736Z,29.20
2017-12-05T20:15:28.239Z,31.13
2017-12-05T20:17:55.759Z,24.93
2017-12-05T20:20:23.270Z,23.00
2017-12-05T20:22:50.792Z,27.63
2017-12-05T20:25:18.299Z,26.53
2017-12-05T20:27:46.583Z,27.83
2017-12-05T20:30:14.855Z,30.40
2017-12-05T20:32:43.139Z,39.73
2017-12-05T20:35:10.655Z,39.00
2017-12-05T20:37:38.176Z,37.57
2017-12-05T20:40:05.738Z,30.87
2017-12-05T20:42:33.986Z,37.87
2017-12-05T20:45:02.255Z,59.47
2017-12-05T20:47:30.543Z,58.83
2017-12-05T20:49:58.043Z,41.60
2017-12-05T20:52:25.562Z,44.87
2017-12-05T20:54:53.071Z,35.80
2017-12-05T20:57:20.602Z,42.60
2017-12-05T20:59:48.102Z,57.17
2017-12-05T21:02:15.611Z,53.40
2017-12-05T21:04:43.288Z,63.37
2017-12-05T21:07:10.849Z,57.97
2017-12-05T21:09:38.378Z,54.67
2017-12-05T21:12:05.919Z,48.20
2017-12-05T21:14:33.500Z,66.27
2017-12-05T21:17:01.060Z,63.67
2017-12-05T21:19:28.602Z,95.90
2017-12-05T21:21:56.940Z,98.83
2017-12-05T21:24:24.450Z,118.73
2017-12-05T21:26:51.967Z,119.47
2017-12-05T21:29:19.466Z,53.07
2017-12-05T21:31:46.987Z,38.73
2017-12-05T21:34:14.546Z,36.07
2017-12-05T21:36:42.063Z,32.57
2017-12-05T21:39:09.553Z,25.53
2017-12-05T21:41:37.067Z,27.20
2017-12-05T21:44:04.570Z,28.07
2017-12-05T21:46:32.087Z,30.33
2017-12-05T21:48:59.589Z,27.90
2017-12-05T21:51:27.114Z,25.70
2017-12-05T21:53:54.614Z,29.37
2017-12-05T21:56:22.131Z,35.03
2017-12-05T21:58:49.630Z,29.20
2017-12-05T22:01:17.919Z,30.30
2017-12-05T22:03:46.201Z,28.37
2017-12-05T22:06:13.737Z,31.87
2017-12-05T22:08:41.230Z,26.40
2017-12-05T22:11:08.731Z,31.17
2017-12-05T22:13:36.247Z,27.67
2017-12-05T22:16:03.746Z,28.30
2017-12-05T22:18:31.262Z,25.93
2017-12-05T22:20:58.768Z,26.47
2017-12-05T22:23:26.286Z,28.60
2017-12-05T22:25:53.782Z,28.53
2017-12-05T22:28:21.304Z,29.37
2017-12-05T22:30:48.810Z,37.53
2017-12-05T22:33:16.322Z,22.83
2017-12-05T22:35:43.822Z,31.80
2017-12-05T22:38:11.343Z,27.67
2017-12-05T22:40:38.834Z,27.80
2017-12-05T22:43:06.360Z,30.53
2017-12-05T22:45:33.863Z,30.50
2017-12-05T22:48:01.387Z,28.70
2017-12-05T22:50:28.886Z,28.10
2017-12-05T22:52:57.174Z,27.40
2017-12-05T22:55:25.439Z,25.80
2017-12-05T22:57:53.718Z,31.07
2017-12-05T23:00:21.982Z,28.83
2017-12-05T23:02:49.520Z,34.97
2017-12-05T23:05:17.014Z,27.10
2017-12-05T23:07:45.275Z,29.53
2017-12-05T23:10:12.792Z,31.10
2017-12-05T23:12:40.298Z,32.67
2017-12-05T23:15:08.589Z,33.10
2017-12-05T23:17:36.855Z,32.70
2017-12-05T23:20:05.154Z,29.13
2017-12-05T23:22:32.654Z,33.70
2017-12-05T23:25:00.168Z,31.10
2017-12-05T23:27:27.662Z,32.23
2017-12-05T23:29:55.184Z,29.20
2017-12-05T23:32:22.686Z,29.00
2017-12-05T23:34:50.222Z,34.20
2017-12-05T23:37:17.726Z,33.97
2017-12-05T23:39:45.232Z,32.20
2017-12-05T23:42:12.759Z,35.73
2017-12-05T23:44:41.027Z,31.17
2017-12-05T23:47:09.315Z,36.73
2017-12-05T23:49:37.586Z,33.03
2017-12-05T23:52:05.875Z,31.53
2017-12-05T23:54:33.379Z,28.57
2017-12-05T23:57:00.899Z,53.60
2017-12-05T23:59:28.407Z,103.27
